Time;durP1;ratioP1;P1;durP2;ratioP2;P2;SDS_P1;SDS_P2;PMS_P1;PMS_P2;Temp;Humidity;BMP_temperature;BMP_pressure;BME280_temperature;BME280_humidity;BME280_pressure;Samples;Min_cycle;Max_cycle;Signal;HPM_P1;HPM_P2
2022/06/18 00:01:37;;;;;;;2.80;2.10;;;;;;;19.53;69.22;100773.52;2771349;83;21072;-83
2022/06/18 00:05:40;;;;;;;4.12;1.82;;;;;;;19.55;69.18;100767.92;2780646;84;21074;-84
2022/06/18 00:09:45;;;;;;;4.17;1.70;;;;;;;19.58;69.14;100763.56;2796849;84;21007;-81
2022/06/18 00:13:49;;;;;;;5.85;2.35;;;;;;;19.60;68.94;100762.87;2791811;84;21050;-82
2022/06/18 00:17:51;;;;;;;2.60;2.40;;;;;;;19.63;68.77;100752.22;2760324;84;21055;-82
2022/06/18 00:21:53;;;;;;;2.77;2.40;;;;;;;19.63;68.73;100758.48;2784090;84;21064;-82
2022/06/18 00:25:54;;;;;;;5.15;2.25;;;;;;;19.63;68.84;100757.62;2816297;83;21031;-82
2022/06/18 00:29:55;;;;;;;4.30;2.20;;;;;;;19.64;68.83;100756.60;2790537;83;21031;-82
2022/06/18 00:33:57;;;;;;;2.05;1.80;;;;;;;19.65;69.21;100755.58;2776408;84;21070;-81
2022/06/18 00:38:02;;;;;;;3.62;2.77;;;;;;;19.65;69.17;100759.14;2828695;84;21549;-81
2022/06/18 00:42:11;;;;;;;2.83;1.52;;;;;;;19.65;69.26;100750.19;2746256;84;21094;-81
2022/06/18 00:46:41;;;;;;;3.95;2.35;;;;;;;19.69;69.19;100751.55;2793246;83;21023;-82
2022/06/18 00:50:50;;;;;;;4.65;1.90;;;;;;;19.72;69.02;100753.03;2787581;83;21017;-81
2022/06/18 00:54:59;;;;;;;2.87;2.05;;;;;;;19.73;68.82;100747.48;2761867;84;21051;-82
2022/06/18 00:59:08;;;;;;;5.70;3.30;;;;;;;19.74;68.64;100753.70;2787900;84;21597;-81
2022/06/18 01:03:31;;;;;;;2.35;2.10;;;;;;;19.74;68.64;100744.25;2768163;83;21262;-82
2022/06/18 01:07:37;;;;;;;2.72;1.80;;;;;;;19.75;68.90;100738.69;2783749;83;21033;-83
2022/06/18 01:11:41;;;;;;;2.20;1.85;;;;;;;19.75;69.21;100739.19;2788265;84;21047;-82
2022/06/18 01:15:44;;;;;;;3.37;2.33;;;;;;;19.77;69.34;100737.18;2811015;83;21051;-82
2022/06/18 01:19:50;;;;;;;3.47;2.10;;;;;;;19.77;69.26;100738.00;2781583;84;21111;-81
2022/06/18 01:23:56;;;;;;;12.03;2.87;;;;;;;19.79;69.29;100738.67;2810617;83;21075;-82
2022/06/18 01:27:58;;;;;;;3.17;2.10;;;;;;;19.81;69.37;100737.98;2736114;85;21039;-83
2022/06/18 01:32:01;;;;;;;7.12;2.47;;;;;;;19.83;69.35;100731.07;2696380;86;21081;-82
2022/06/18 01:36:08;;;;;;;4.90;2.25;;;;;;;19.82;69.21;100723.47;2802735;83;21549;-81
2022/06/18 01:40:12;;;;;;;3.80;1.87;;;;;;;19.82;69.09;100722.12;2778065;83;21275;-82
2022/06/18 01:44:22;;;;;;;2.85;2.27;;;;;;;19.86;69.12;100722.61;2809281;83;21067;-82
2022/06/18 01:48:31;;;;;;;2.80;2.00;;;;;;;19.90;68.86;100715.02;2809794;83;21076;-82
2022/06/18 01:52:37;;;;;;;2.62;1.77;;;;;;;19.91;68.57;100712.16;2808000;84;21071;-82
2022/06/18 01:56:45;;;;;;;5.17;1.85;;;;;;;19.89;68.76;100706.58;2809952;83;21029;-82
2022/06/18 02:00:52;;;;;;;2.50;2.30;;;;;;;19.88;69.01;100703.55;2795903;84;21016;-82
2022/06/18 02:04:53;;;;;;;3.52;1.87;;;;;;;19.86;69.44;100696.14;2795752;83;21025;-82
2022/06/18 02:08:55;;;;;;;2.40;1.85;;;;;;;19.86;69.82;100692.92;2758243;85;21098;-82
2022/06/18 02:13:00;;;;;;;2.35;2.02;;;;;;;19.82;69.49;100694.30;2797219;84;21070;-82
2022/06/18 02:17:05;;;;;;;2.92;1.87;;;;;;;19.84;70.16;100699.84;2818978;83;21038;-82
2022/06/18 02:21:11;;;;;;;2.08;1.87;;;;;;;19.86;70.24;100697.50;2786620;84;21083;-81
2022/06/18 02:25:14;;;;;;;4.30;2.50;;;;;;;19.89;70.33;100693.09;2797065;83;21063;-82
2022/06/18 02:29:26;;;;;;;3.75;2.00;;;;;;;19.90;70.19;100694.24;2787622;83;21031;-82
2022/06/18 02:33:41;;;;;;;1.72;1.62;;;;;;;19.92;70.09;100690.06;2784995;84;21000;-81
2022/06/18 02:37:43;;;;;;;3.23;1.80;;;;;;;19.95;69.66;100691.05;2787950;83;21063;-82
2022/06/18 02:41:45;;;;;;;26.17;7.62;;;;;;;19.97;68.74;100693.06;2795734;84;21577;-83
2022/06/18 02:45:52;;;;;;;6.70;2.10;;;;;;;20.01;68.01;100690.85;2745222;86;22261;-82
2022/06/18 02:50:00;;;;;;;2.80;1.25;;;;;;;20.01;67.64;100693.02;2741452;86;21019;-81
2022/06/18 02:54:02;;;;;;;2.60;1.75;;;;;;;20.01;67.71;100693.02;2682904;86;21179;-82
2022/06/18 02:58:11;;;;;;;1.55;1.45;;;;;;;20.03;67.47;100689.63;2714869;86;21060;-80
2022/06/18 03:02:12;;;;;;;1.82;1.60;;;;;;;20.02;67.28;100690.66;2738309;86;21776;-81
2022/06/18 03:06:16;;;;;;;32.00;4.97;;;;;;;20.00;67.29;100682.42;2710921;86;21029;-82
2022/06/18 03:14:37;;;;;;;6.20;2.02;;;;;;;20.03;67.23;100682.89;2776100;83;21187;-82
2022/06/18 03:18:41;;;;;;;4.08;2.00;;;;;;;20.05;66.80;100682.23;2775385;84;21052;-82
2022/06/18 03:22:42;;;;;;;3.85;1.47;;;;;;;20.09;66.59;100677.28;2778113;84;21682;-82
2022/06/18 03:26:44;;;;;;;2.33;1.80;;;;;;;20.12;66.93;100683.18;2829761;81;21059;-81
2022/06/18 03:30:46;;;;;;;2.08;1.42;;;;;;;20.17;66.75;100681.30;2766451;84;21062;-82
2022/06/18 03:34:47;;;;;;;2.35;0.95;;;;;;;20.20;66.15;100676.03;2794177;83;21035;-83
2022/06/18 03:38:49;;;;;;;1.82;1.40;;;;;;;20.25;66.26;100677.70;2795284;84;21031;-82
2022/06/18 03:42:52;;;;;;;1.77;1.42;;;;;;;20.34;65.56;100678.45;2760524;84;20976;-82
2022/06/18 03:46:53;;;;;;;4.87;2.10;;;;;;;20.45;65.25;100671.81;2807094;84;21067;-83
2022/06/18 03:50:56;;;;;;;2.25;1.47;;;;;;;20.53;64.40;100663.63;2815056;84;21021;-82
2022/06/18 03:54:57;;;;;;;2.45;1.62;;;;;;;20.67;64.00;100658.77;2829275;83;21016;-83
2022/06/18 03:58:59;;;;;;;1.50;1.40;;;;;;;20.78;63.53;100660.18;2776955;84;21786;-82
2022/06/18 04:03:00;;;;;;;2.92;1.47;;;;;;;20.90;62.43;100655.69;2793935;84;21684;-82
2022/06/18 04:07:02;;;;;;;1.87;1.60;;;;;;;20.98;62.13;100656.44;2802803;84;21059;-82
2022/06/18 04:11:03;;;;;;;11.53;2.27;;;;;;;21.11;62.25;100648.20;2792055;83;21053;-82
2022/06/18 04:15:05;;;;;;;3.08;1.75;;;;;;;21.22;61.73;100643.69;2775570;84;21027;-82
2022/06/18 04:19:08;;;;;;;2.30;1.60;;;;;;;21.33;61.44;100644.22;2787546;84;21039;-82
2022/06/18 04:23:11;;;;;;;3.90;1.40;;;;;;;21.43;60.91;100642.08;2770099;83;21019;-81
2022/06/18 04:27:12;;;;;;;9.23;1.12;;;;;;;21.54;61.15;100628.58;2761817;84;21059;-82
2022/06/18 04:31:13;;;;;;;2.45;1.77;;;;;;;21.64;61.04;100629.63;2814316;83;21002;-82
2022/06/18 04:35:15;;;;;;;2.85;1.70;;;;;;;21.68;61.07;100627.70;2809034;83;21038;-82
2022/06/18 04:39:17;;;;;;;4.67;2.00;;;;;;;21.71;60.64;100626.50;2814543;82;21002;-82
2022/06/18 04:43:18;;;;;;;2.27;1.62;;;;;;;21.75;60.93;100622.37;2798619;83;20991;-82
2022/06/18 04:47:20;;;;;;;2.42;1.30;;;;;;;21.78;60.62;100625.22;2825297;83;21039;-81
2022/06/18 04:51:21;;;;;;;1.37;1.27;;;;;;;21.86;61.30;100623.73;2804948;83;21040;-82
2022/06/18 04:55:22;;;;;;;1.62;1.47;;;;;;;21.99;61.23;100622.20;2774428;84;21086;-82
2022/06/18 04:59:24;;;;;;;3.65;1.55;;;;;;;22.15;61.72;100619.73;2790124;83;21098;-83
2022/06/18 05:03:25;;;;;;;2.55;2.10;;;;;;;22.34;61.95;100625.84;2788394;83;21023;-82
2022/06/18 05:07:27;;;;;;;4.92;1.72;;;;;;;22.52;61.85;100625.92;2782565;83;21066;-82
2022/06/18 05:11:28;;;;;;;2.22;1.50;;;;;;;22.65;61.59;100625.17;2784474;83;21311;-82
2022/06/18 05:15:30;;;;;;;6.03;1.67;;;;;;;22.86;62.21;100628.86;2790463;83;21033;-81
2022/06/18 05:19:33;;;;;;;24.50;5.20;;;;;;;23.18;62.39;100628.72;2797873;82;21051;-81
2022/06/18 05:23:34;;;;;;;4.03;1.82;;;;;;;23.79;60.92;100627.12;2788971;83;21066;-81
2022/06/18 05:27:37;;;;;;;2.45;1.67;;;;;;;24.29;58.47;100612.89;2780095;83;21060;-82
2022/06/18 05:31:38;;;;;;;9.23;2.02;;;;;;;24.74;58.11;100616.28;2776226;83;21006;-82
2022/06/18 05:35:42;;;;;;;26.15;5.58;;;;;;;24.98;57.21;100607.17;2780187;83;21099;-81
2022/06/18 05:39:44;;;;;;;5.28;2.08;;;;;;;25.15;56.50;100602.91;2782477;83;21643;-83
2022/06/18 05:43:45;;;;;;;2.47;1.47;;;;;;;25.86;56.34;100604.89;2775164;83;21047;-81
2022/06/18 05:47:46;;;;;;;2.87;1.55;;;;;;;26.57;54.90;100591.12;2808633;83;21005;-82
2022/06/18 05:51:47;;;;;;;1.82;1.55;;;;;;;27.01;52.15;100588.38;2794840;83;21058;-82
2022/06/18 05:55:48;;;;;;;2.62;1.35;;;;;;;27.13;53.21;100585.72;2810635;83;21461;-82
2022/06/18 05:59:50;;;;;;;2.17;1.52;;;;;;;27.34;52.65;100584.41;2793816;84;21550;-82
2022/06/18 06:03:51;;;;;;;3.80;2.27;;;;;;;27.56;51.95;100577.92;2785389;83;21010;-82
2022/06/18 06:07:52;;;;;;;2.87;1.85;;;;;;;27.88;51.52;100585.02;2777123;84;21079;-83
2022/06/18 06:11:54;;;;;;;4.70;1.50;;;;;;;28.33;51.98;100590.00;2765566;84;28418;-82
2022/06/18 06:15:58;;;;;;;2.50;1.42;;;;;;;28.78;50.16;100581.68;2790988;83;21003;-82
2022/06/18 06:20:07;;;;;;;1.37;1.15;;;;;;;29.36;48.22;100559.05;2796748;83;21047;-82
2022/06/18 06:24:09;;;;;;;4.85;1.30;;;;;;;29.36;48.22;100559.05;2800675;83;21046;-83
2022/06/18 06:28:20;;;;;;;2.83;1.25;;;;;;;29.17;47.62;100555.14;2832507;83;21684;-84
2022/06/18 06:32:22;;;;;;;5.75;1.27;;;;;;;29.17;47.68;100541.45;2769808;83;21081;-81
2022/06/18 06:36:23;;;;;;;2.90;1.32;;;;;;;29.57;48.64;100541.09;2816205;83;21578;-83
2022/06/18 06:40:24;;;;;;;3.22;1.52;;;;;;;29.94;47.15;100538.44;2808140;83;21035;-82
2022/06/18 06:44:25;;;;;;;1.67;1.10;;;;;;;30.04;46.38;100534.50;2812810;83;21094;-83
2022/06/18 06:48:27;;;;;;;3.70;1.35;;;;;;;30.13;46.39;100531.35;2801790;84;20980;-83
2022/06/18 06:52:28;;;;;;;1.87;0.78;;;;;;;30.27;45.43;100529.93;2810016;84;21023;-84
2022/06/18 07:00:53;;;;;;;2.60;0.80;;;;;;;30.94;44.97;100530.53;2799934;83;21746;-83
2022/06/18 07:04:54;;;;;;;2.58;1.00;;;;;;;31.24;45.12;100517.71;2802272;83;21058;-82
2022/06/18 07:08:55;;;;;;;1.72;0.82;;;;;;;31.37;44.37;100515.09;2796831;83;21071;-83
2022/06/18 07:12:57;;;;;;;2.95;1.22;;;;;;;31.40;44.10;100513.75;2802253;83;21023;-85
2022/06/18 07:16:57;;;;;;;2.67;0.78;;;;;;;31.33;44.32;100509.83;2793833;83;21004;-83
2022/06/18 07:21:00;;;;;;;1.12;0.88;;;;;;;31.35;43.69;100510.40;2789566;83;21548;-86
2022/06/18 07:25:01;;;;;;;4.83;1.25;;;;;;;31.67;43.23;100504.09;2785658;83;21043;-85
2022/06/18 07:29:02;;;;;;;1.98;0.70;;;;;;;31.73;43.03;100503.03;2783422;83;21355;-84
2022/06/18 07:33:05;;;;;;;1.65;0.80;;;;;;;31.97;44.16;100501.31;2792477;83;21039;-81
2022/06/18 07:37:06;;;;;;;0.75;0.75;;;;;;;32.04;42.20;100488.17;2783053;83;21063;-81
2022/06/18 07:41:08;;;;;;;7.08;1.55;;;;;;;32.23;41.44;100484.14;2785426;83;21087;-81
2022/06/18 07:45:20;;;;;;;2.92;1.12;;;;;;;32.25;41.75;100486.92;2790029;84;21039;-84
2022/06/18 07:49:21;;;;;;;1.47;0.98;;;;;;;32.36;42.78;100486.98;2774717;83;21086;-83
2022/06/18 07:53:25;;;;;;;0.85;0.68;;;;;;;32.67;42.60;100477.50;2772298;83;21114;-84
2022/06/18 07:57:26;;;;;;;1.47;0.75;;;;;;;33.01;41.03;100471.01;2780367;83;21102;-84
2022/06/18 08:01:28;;;;;;;2.33;0.98;;;;;;;33.35;40.21;100471.61;2751108;84;21043;-84
2022/06/18 08:05:29;;;;;;;2.70;0.88;;;;;;;33.61;40.31;100466.95;2786517;83;21029;-83
2022/06/18 08:09:32;;;;;;;2.12;1.02;;;;;;;33.76;39.97;100466.11;2795114;83;21000;-83
2022/06/18 08:13:34;;;;;;;2.25;0.93;;;;;;;33.85;39.40;100466.38;2762901;83;21004;-83
2022/06/18 08:17:36;;;;;;;1.65;0.80;;;;;;;34.02;39.18;100457.27;2807167;83;21035;-86
2022/06/18 08:21:43;;;;;;;0.88;0.50;;;;;;;34.02;38.77;100450.91;2806181;83;21043;-83
2022/06/18 08:25:45;;;;;;;1.82;1.00;;;;;;;34.08;38.64;100457.25;2789604;83;21027;-85
2022/06/18 08:29:46;;;;;;;1.95;1.72;;;;;;;34.21;39.35;100448.38;2712465;85;21058;-84
2022/06/18 08:33:47;;;;;;;1.17;0.80;;;;;;;34.32;38.37;100443.08;2799362;83;21007;-85
2022/06/18 08:37:49;;;;;;;2.17;0.70;;;;;;;34.38;39.05;100439.75;2802976;83;21063;-85
2022/06/18 08:42:29;;;;;;;3.67;0.78;;;;;;;33.88;36.06;100438.23;2763063;83;20993;-86
2022/06/18 08:47:18;;;;;;;1.02;0.60;;;;;;;33.29;37.55;100436.32;2795969;83;21060;-85
2022/06/18 08:51:31;;;;;;;2.40;0.70;;;;;;;32.93;38.28;100429.39;2817757;83;21015;-85
2022/06/18 08:56:08;;;;;;;1.12;0.75;;;;;;;32.61;37.46;100418.83;2795530;83;21055;-84
2022/06/18 09:00:15;;;;;;;0.72;0.62;;;;;;;32.52;36.11;100405.30;2791078;82;21035;-87
2022/06/18 09:05:10;;;;;;;0.98;0.88;;;;;;;32.72;37.75;100403.16;2816473;83;21119;-85
2022/06/18 09:09:35;;;;;;;0.75;0.65;;;;;;;32.94;37.80;100409.02;2766719;83;21047;-84
2022/06/18 09:14:01;;;;;;;;;;;;;;;33.14;37.11;100395.25;2811304;83;20974;-92
2022/06/18 09:18:16;;;;;;;1.95;0.37;;;;;;;33.37;37.59;100396.36;2810962;83;20806;-84
2022/06/18 09:22:20;;;;;;;0.75;0.40;;;;;;;33.39;37.96;100389.45;2814884;83;21026;-84
2022/06/18 09:26:30;;;;;;;0.50;0.40;;;;;;;33.49;37.20;100391.40;2796858;83;20991;-84
2022/06/18 09:30:57;;;;;;;0.60;0.50;;;;;;;33.61;36.90;100388.38;2810553;83;21030;-84
2022/06/18 09:35:06;;;;;;;1.90;0.70;;;;;;;33.63;36.61;100371.00;2779254;84;21023;-82
2022/06/18 09:39:13;;;;;;;0.57;0.47;;;;;;;33.69;36.59;100368.48;2769529;84;21070;-84
2022/06/18 09:43:36;;;;;;;1.95;0.35;;;;;;;33.74;36.88;100361.58;2821245;83;21007;-84
2022/06/18 09:47:46;;;;;;;2.02;0.60;;;;;;;33.65;34.70;100349.48;2819441;83;21023;-84
2022/06/18 09:51:58;;;;;;;1.27;0.90;;;;;;;33.68;37.13;100359.95;2737415;85;21074;-84
2022/06/18 09:56:10;;;;;;;1.75;0.70;;;;;;;33.80;36.94;100359.63;2809172;83;21537;-84
2022/06/18 10:00:19;;;;;;;8.28;1.62;;;;;;;33.85;36.56;100352.71;2802095;83;21023;-83
2022/06/18 10:08:56;;;;;;;5.53;0.80;;;;;;;33.85;36.04;100338.92;2831216;83;21003;-84
2022/06/18 10:12:59;;;;;;;3.77;1.05;;;;;;;33.81;36.20;100338.41;2818406;83;21063;-83
2022/06/18 10:17:24;;;;;;;2.08;0.60;;;;;;;33.80;35.83;100335.34;2811959;83;21054;-82
2022/06/18 10:21:41;;;;;;;;;;;;;;;33.72;36.15;100332.64;2830414;83;21063;-84
2022/06/18 10:25:57;;;;;;;0.55;0.33;;;;;;;33.55;35.71;100324.67;2770879;84;20117;-83
2022/06/18 10:30:10;;;;;;;1.05;0.75;;;;;;;33.68;36.38;100320.50;2793311;83;21034;-83
2022/06/18 10:34:34;;;;;;;2.25;0.90;;;;;;;33.83;36.58;100314.93;2788611;83;21887;-84
2022/06/18 10:39:00;;;;;;;1.72;0.60;;;;;;;33.97;36.11;100306.90;2795321;83;21054;-92
2022/06/18 10:43:06;;;;;;;1.85;0.57;;;;;;;33.97;36.57;100304.14;2657303;88;21058;-83
2022/06/18 10:47:15;;;;;;;0.82;0.65;;;;;;;33.97;37.64;100295.05;2645336;88;21044;-83
2022/06/18 10:51:20;;;;;;;2.77;0.80;;;;;;;34.07;36.74;100282.57;2644823;88;21163;-84
2022/06/18 10:55:22;;;;;;;0.70;0.70;;;;;;;34.10;37.08;100280.65;2644778;88;21062;-82
2022/06/18 10:59:36;;;;;;;1.25;0.95;;;;;;;34.14;36.56;100269.30;2643612;88;21122;-82
2022/06/18 11:03:38;;;;;;;0.57;0.57;;;;;;;34.24;37.31;100275.86;2604949;88;21131;-85
2022/06/18 11:07:39;;;;;;;0.47;0.30;;;;;;;34.25;34.96;100276.96;2645581;90;20991;-82
2022/06/18 11:11:40;;;;;;;1.55;0.90;;;;;;;34.23;38.09;100269.53;2640935;88;21039;-81
2022/06/18 11:15:41;;;;;;;4.45;0.50;;;;;;;34.27;36.79;100271.98;2549788;88;21071;-83
2022/06/18 11:19:48;;;;;;;0.85;0.70;;;;;;;34.31;37.44;100262.58;2704975;84;21082;-85
2022/06/18 11:23:53;;;;;;;1.52;0.50;;;;;;;34.25;36.14;100257.64;2766254;84;21035;-79
2022/06/18 11:27:59;;;;;;;2.05;0.70;;;;;;;34.26;35.91;100252.93;2762441;84;21024;-85
2022/06/18 11:32:11;;;;;;;1.12;0.42;;;;;;;34.29;36.62;100239.39;2761535;84;21570;-82
2022/06/18 11:36:19;;;;;;;3.72;0.72;;;;;;;34.29;37.20;100245.45;2758807;84;21066;-83
2022/06/18 11:40:21;;;;;;;0.72;0.57;;;;;;;34.37;36.38;100237.12;2737102;84;21004;-84
2022/06/18 11:44:51;;;;;;;0.62;0.30;;;;;;;34.38;35.80;100236.01;2747615;84;20992;-92
2022/06/18 11:49:04;;;;;;;1.45;0.47;;;;;;;34.36;35.86;100221.67;2761625;84;20982;-81
2022/06/18 11:53:35;;;;;;;1.82;0.80;;;;;;;34.40;35.68;100236.57;2764259;83;21043;-81
2022/06/18 11:58:00;;;;;;;6.80;1.35;;;;;;;34.27;35.75;100225.59;2723010;84;21672;-82
2022/06/18 12:02:06;;;;;;;0.80;0.57;;;;;;;34.37;36.76;100217.80;2719266;86;21042;-82
2022/06/18 12:06:39;;;;;;;1.45;0.25;;;;;;;34.29;34.92;100217.31;2734633;85;21034;-82
2022/06/18 12:10:51;;;;;;;0.95;0.60;;;;;;;34.23;34.73;100212.95;2726056;86;21003;-83
2022/06/18 12:15:04;;;;;;;2.42;0.82;;;;;;;34.28;35.64;100207.38;2739457;86;21083;-82
2022/06/18 12:19:19;;;;;;;1.40;0.68;;;;;;;34.37;35.97;100202.61;2732410;86;21129;-82
2022/06/18 12:23:55;;;;;;;2.50;0.80;;;;;;;34.49;36.12;100201.73;2757922;84;21060;-82
2022/06/18 12:28:27;;;;;;;1.50;0.93;;;;;;;34.64;35.48;100188.91;2740127;84;21054;-82
2022/06/18 12:33:12;;;;;;;4.47;0.90;;;;;;;34.62;34.49;100181.47;2743998;84;21011;-82
2022/06/18 12:37:21;;;;;;;4.42;1.20;;;;;;;34.74;35.45;100185.48;2815060;82;21088;-82
2022/06/18 12:41:45;;;;;;;2.47;0.68;;;;;;;34.71;34.06;100171.42;2817999;82;21165;-82
2022/06/18 12:46:00;;;;;;;2.00;0.62;;;;;;;34.70;33.76;100168.41;2815595;83;20984;-87
2022/06/18 12:50:22;;;;;;;2.77;0.70;;;;;;;34.64;34.36;100162.67;2803209;82;21012;-82
2022/06/18 12:54:50;;;;;;;0.78;0.40;;;;;;;34.58;34.83;100155.80;2817861;83;21019;-82
2022/06/18 12:59:14;;;;;;;4.00;0.90;;;;;;;34.71;35.62;100147.95;2796395;83;21021;-88
2022/06/18 13:03:33;;;;;;;1.77;0.85;;;;;;;34.92;35.44;100158.78;2782508;83;21080;-83
2022/06/18 13:08:03;;;;;;;4.72;1.00;;;;;;;34.83;34.89;100138.72;2746407;84;21077;-85
2022/06/18 13:12:22;;;;;;;1.00;0.60;;;;;;;34.96;35.05;100137.73;2819651;83;21043;-82
2022/06/18 13:16:28;;;;;;;5.72;0.88;;;;;;;35.07;36.58;100132.94;2818509;83;21070;-82
2022/06/18 13:20:50;;;;;;;1.32;1.02;;;;;;;35.16;35.95;100123.70;2760978;84;21063;-81
2022/06/18 13:29:34;;;;;;;5.58;1.95;;;;;;;35.49;35.07;100112.50;2811833;83;21055;-82
2022/06/18 13:33:54;;;;;;;;;;;;;;;35.44;34.67;100105.93;2817599;83;21059;-82
2022/06/18 13:38:01;;;;;;;4.35;0.90;;;;;;;35.30;34.49;100106.39;2827903;82;20113;-83
2022/06/18 13:42:16;;;;;;;2.12;1.25;;;;;;;35.28;35.31;100103.11;2819342;83;21071;-85
2022/06/18 13:46:23;;;;;;;2.27;1.00;;;;;;;35.43;36.95;100097.92;2799989;83;21064;-85
2022/06/18 13:50:46;;;;;;;3.40;1.15;;;;;;;35.29;35.37;100093.70;2821321;83;21103;-84
2022/06/18 13:54:51;;;;;;;1.20;0.80;;;;;;;35.41;36.10;100095.47;2810350;83;21039;-84
2022/06/18 13:58:59;;;;;;;4.87;1.98;;;;;;;35.51;35.26;100083.45;2823439;83;21032;-84
2022/06/18 14:03:09;;;;;;;3.00;1.57;;;;;;;35.55;36.82;100078.14;2830514;83;21015;-83
2022/06/18 14:07:15;;;;;;;4.42;1.42;;;;;;;35.70;36.44;100083.45;2816850;83;21046;-83
2022/06/18 14:11:42;;;;;;;2.30;1.35;;;;;;;35.58;35.31;100083.10;2756103;83;21043;-84
2022/06/18 14:16:03;;;;;;;2.02;1.20;;;;;;;35.61;35.82;100078.34;2782901;84;21057;-82
2022/06/18 14:20:06;;;;;;;3.75;1.32;;;;;;;35.58;36.54;100078.38;2771127;84;21047;-83
2022/06/18 14:24:10;;;;;;;2.33;1.22;;;;;;;35.63;37.12;100078.87;2746277;85;21334;-83
2022/06/18 14:28:21;;;;;;;;;;;;;;;35.63;37.41;100078.87;2728775;85;21070;-83
2022/06/18 14:32:42;;;;;;;3.37;1.50;;;;;;;35.58;36.39;100060.98;2743273;85;20579;-83
2022/06/18 14:36:47;;;;;;;4.70;1.37;;;;;;;35.66;37.47;100051.98;2740469;85;21024;-84
2022/06/18 14:45:32;;;;;;;4.87;1.75;;;;;;;35.69;37.28;100050.00;2768630;83;21062;-81
2022/06/18 14:49:54;;;;;;;3.02;1.17;;;;;;;35.84;37.63;100046.73;2755633;85;21071;-83
2022/06/18 14:54:50;;;;;;;2.37;1.42;;;;;;;35.83;38.17;100049.23;2775069;85;21050;-83
2022/06/18 14:59:39;;;;;;;3.77;1.35;;;;;;;35.83;37.82;100046.47;2776266;85;21418;-83
2022/06/18 15:04:00;;;;;;;6.08;1.07;;;;;;;35.73;37.32;100043.31;2755078;85;21034;-83
2022/06/18 15:08:17;;;;;;;5.50;1.90;;;;;;;35.73;37.52;100032.25;2752917;85;21373;-83
2022/06/18 15:12:18;;;;;;;5.50;2.05;;;;;;;35.74;37.44;100026.97;2759366;85;21070;-84
2022/06/18 15:16:27;;;;;;;3.60;1.10;;;;;;;35.76;38.29;100032.19;2760309;85;20944;-84
2022/06/18 15:20:53;;;;;;;2.08;0.80;;;;;;;35.79;37.68;100024.69;2776291;85;21584;-84
2022/06/18 15:29:07;;;;;;;5.20;1.42;;;;;;;35.80;38.18;100008.35;2769167;84;21091;-82
2022/06/18 15:33:17;;;;;;;3.15;1.20;;;;;;;35.73;37.55;99991.56;2766329;85;21007;-84
2022/06/18 15:37:22;;;;;;;5.92;2.35;;;;;;;35.63;37.31;100006.96;2756662;85;21018;-82
2022/06/18 15:41:38;;;;;;;2.02;1.10;;;;;;;35.59;37.41;99999.81;2755666;83;21053;-85
2022/06/18 15:45:52;;;;;;;1.82;1.15;;;;;;;35.51;37.78;99992.73;2755320;85;21079;-85
2022/06/18 15:49:54;;;;;;;;;;;;;;;35.43;37.89;99989.55;2736580;85;21071;-84
2022/06/18 15:54:07;;;;;;;3.35;1.60;;;;;;;35.45;38.10;99984.53;2756155;85;20144;-84
2022/06/18 15:58:09;;;;;;;7.60;1.63;;;;;;;35.53;38.54;99982.22;2760808;83;21146;-84
2022/06/18 16:02:15;;;;;;;2.52;1.42;;;;;;;35.53;37.43;99979.45;2766536;85;21109;-83
2022/06/18 16:06:20;;;;;;;2.47;0.93;;;;;;;35.49;37.90;99976.47;2761324;84;21018;-83
2022/06/18 16:10:39;;;;;;;3.12;1.50;;;;;;;35.42;37.97;99974.08;2741774;85;21047;-83
2022/06/18 16:14:40;;;;;;;2.42;1.35;;;;;;;35.32;37.04;99965.94;2726551;86;21039;-85
2022/06/18 16:18:41;;;;;;;3.30;1.77;;;;;;;35.24;37.52;99967.44;2765814;85;21059;-84
2022/06/18 16:22:48;;;;;;;9.88;1.70;;;;;;;35.16;36.69;99962.59;2793061;83;21055;-84
2022/06/18 16:26:54;;;;;;;4.72;1.27;;;;;;;35.04;37.29;99960.29;2820691;83;21055;-86
2022/06/18 16:30:59;;;;;;;2.58;1.45;;;;;;;34.97;37.92;99962.55;2796562;83;21079;-83
2022/06/18 16:35:11;;;;;;;5.42;1.85;;;;;;;34.98;38.22;99961.43;2819148;83;21063;-83
2022/06/18 16:39:13;;;;;;;11.97;1.40;;;;;;;34.80;37.11;99955.63;2819238;82;21044;-83
2022/06/18 16:43:16;;;;;;;12.35;2.00;;;;;;;34.62;38.00;99946.18;2814368;83;21015;-85
2022/06/18 16:47:18;;;;;;;3.33;1.82;;;;;;;34.43;38.18;99946.13;2790110;84;21062;-86
2022/06/18 16:51:45;;;;;;;1.67;1.50;;;;;;;34.28;38.39;99953.47;2804098;84;21051;-87
2022/06/18 16:55:46;;;;;;;4.30;1.67;;;;;;;34.13;38.70;99955.01;2814828;83;21433;-83
2022/06/18 16:59:55;;;;;;;5.28;1.75;;;;;;;33.99;38.91;99947.41;2807476;83;21067;-85
2022/06/18 17:03:56;;;;;;;10.18;1.80;;;;;;;33.88;39.26;99939.77;2784546;83;21094;-84
2022/06/18 17:07:57;;;;;;;3.25;1.72;;;;;;;33.78;39.96;99948.16;2819288;83;21024;-83
2022/06/18 17:11:59;;;;;;;6.08;1.70;;;;;;;33.68;40.40;99951.84;2789415;83;21015;-92
2022/06/18 17:16:00;;;;;;;6.92;1.27;;;;;;;33.55;41.27;99948.36;2819270;82;21039;-89
2022/06/18 17:20:02;;;;;;;2.40;1.52;;;;;;;33.40;41.96;99945.95;2801780;83;21070;-92
2022/06/18 17:32:44;;;;;;;6.55;1.52;;;;;;;33.04;43.01;99949.80;2750989;84;21051;-87
2022/06/18 17:36:45;;;;;;;3.17;1.82;;;;;;;32.95;43.17;99953.44;2729017;84;21042;-90
2022/06/18 17:40:48;;;;;;;2.72;1.42;;;;;;;32.81;43.13;99944.95;2711554;84;21022;-84
2022/06/18 17:44:50;;;;;;;13.38;2.17;;;;;;;32.60;43.46;99947.80;2749134;85;21075;-84
2022/06/18 17:48:51;;;;;;;4.97;1.20;;;;;;;32.41;44.30;99947.59;2745421;84;21317;-85
2022/06/18 17:52:52;;;;;;;2.67;1.02;;;;;;;32.22;44.54;99937.16;2769421;82;21036;-84
2022/06/18 17:56:55;;;;;;;2.60;1.50;;;;;;;32.01;45.07;99941.34;2756626;84;21039;-84
2022/06/18 18:00:57;;;;;;;2.72;1.70;;;;;;;31.82;45.63;99947.98;2781034;84;21141;-84
2022/06/18 18:04:58;;;;;;;3.15;1.95;;;;;;;31.62;45.83;99933.66;2791321;84;21047;-85
2022/06/18 18:09:00;;;;;;;4.53;1.20;;;;;;;31.42;46.32;99938.62;2778779;84;21020;-84
2022/06/18 18:13:02;;;;;;;2.95;1.30;;;;;;;31.21;46.57;99937.23;2791804;84;21025;-85
2022/06/18 18:17:04;;;;;;;3.80;1.52;;;;;;;31.02;47.18;99932.76;2762389;83;21051;-84
2022/06/18 18:21:05;;;;;;;3.20;1.60;;;;;;;30.75;47.34;99931.05;2764963;84;20986;-85
2022/06/18 18:25:07;;;;;;;4.72;1.82;;;;;;;30.57;47.65;99935.89;2768320;84;21043;-84
2022/06/18 18:29:09;;;;;;;6.15;2.08;;;;;;;30.41;48.02;99934.17;2757316;84;21015;-84
2022/06/18 18:33:10;;;;;;;3.17;1.60;;;;;;;30.26;48.42;99933.00;2767665;83;21092;-86
2022/06/18 18:37:12;;;;;;;4.53;2.67;;;;;;;30.12;48.55;99932.66;2761763;84;21094;-85
2022/06/18 18:41:15;;;;;;;2.98;1.45;;;;;;;30.00;48.94;99936.13;2771759;84;21131;-85
2022/06/18 18:45:19;;;;;;;7.80;1.80;;;;;;;29.81;49.19;99931.07;2787255;84;20978;-84
2022/06/18 18:49:20;;;;;;;7.83;2.40;;;;;;;29.60;49.54;99940.51;2776229;82;21031;-86
2022/06/18 18:53:21;;;;;;;2.70;1.42;;;;;;;29.42;49.64;99933.49;2749316;84;21085;-84
2022/06/18 18:57:23;;;;;;;4.03;2.37;;;;;;;29.28;49.77;99940.44;2773944;83;21066;-84
2022/06/18 19:01:24;;;;;;;4.62;1.82;;;;;;;29.15;49.95;99945.80;2763111;84;21022;-83
2022/06/18 19:05:25;;;;;;;8.28;2.22;;;;;;;28.98;49.99;99943.17;2790869;84;21057;-83
2022/06/18 19:09:28;;;;;;;4.85;2.22;;;;;;;28.78;50.27;99946.73;2756811;84;21006;-87
2022/06/18 19:13:29;;;;;;;7.20;2.65;;;;;;;28.63;50.36;99950.69;2784371;84;21050;-84
2022/06/18 19:17:31;;;;;;;59.38;33.65;;;;;;;28.39;50.93;99965.13;2769966;84;21052;-84
2022/06/18 19:21:32;;;;;;;26.68;15.28;;;;;;;28.39;50.93;99965.13;2794924;82;21043;-84
2022/06/18 19:25:35;;;;;;;15.15;8.18;;;;;;;28.20;50.58;99946.28;2755448;85;21043;-88
2022/06/18 19:29:37;;;;;;;11.03;7.12;;;;;;;28.02;50.72;99959.11;2773885;85;20994;-83
2022/06/18 19:33:39;;;;;;;38.42;10.13;;;;;;;27.99;50.97;99973.29;2756767;85;21120;-83
2022/06/18 19:37:41;;;;;;;4.83;3.25;;;;;;;27.67;51.02;99940.27;2748192;85;20969;-83
2022/06/18 19:41:42;;;;;;;8.08;4.72;;;;;;;27.71;51.32;99979.14;2732663;84;21039;-85
2022/06/18 19:45:45;;;;;;;16.17;9.00;;;;;;;27.58;51.39;99973.44;2750238;85;21059;-82
2022/06/18 19:49:46;;;;;;;59.75;34.30;;;;;;;27.45;51.52;99985.48;2755856;85;21027;-82